createdAt,value
2023-11-30T00:02:58.189Z,-1.03
2023-11-30T00:05:59.879Z,-1.02
2023-11-30T00:09:04.823Z,-1.05
2023-11-30T00:12:08.468Z,-1.06
2023-11-30T00:15:11.014Z,-1.08
2023-11-30T00:18:13.174Z,-1.08
2023-11-30T00:21:15.172Z,-1.10
2023-11-30T00:24:17.352Z,-1.09
2023-11-30T00:27:20.645Z,-1.07
2023-11-30T00:30:22.596Z,-1.06
2023-11-30T00:33:24.746Z,-1.04
2023-11-30T00:36:26.827Z,-1.03
2023-11-30T00:39:28.893Z,-1.03
2023-11-30T00:42:32.181Z,-1.05
2023-11-30T00:45:34.135Z,-1.10
2023-11-30T00:48:36.583Z,-1.04
2023-11-30T00:51:38.553Z,-1.04
2023-11-30T00:54:40.514Z,-1.04
2023-11-30T00:57:43.805Z,-1.01
2023-11-30T01:00:45.744Z,-1.05
2023-11-30T01:03:48.879Z,-1.04
2023-11-30T01:06:51.314Z,-0.98
2023-11-30T01:09:53.266Z,-1.01
2023-11-30T01:12:56.569Z,-1.04
2023-11-30T01:15:58.698Z,-1.01
2023-11-30T01:19:00.821Z,-1.00
2023-11-30T01:22:03.046Z,-1.01
2023-11-30T01:25:05.815Z,-1.05
2023-11-30T01:28:09.155Z,-1.04
2023-11-30T01:31:10.919Z,-1.05
2023-11-30T01:34:12.985Z,-1.04
2023-11-30T01:37:15.000Z,-1.08
2023-11-30T01:40:17.371Z,-1.09
2023-11-30T01:43:22.755Z,-1.09
2023-11-30T01:46:24.692Z,-1.18
2023-11-30T01:49:28.403Z,-1.08
2023-11-30T01:52:30.840Z,-1.08
2023-11-30T01:55:33.583Z,-1.09
2023-11-30T01:58:39.787Z,-1.07
2023-11-30T02:01:43.223Z,-1.07
2023-11-30T02:04:49.900Z,-1.09
2023-11-30T02:07:52.106Z,-1.09
2023-11-30T02:10:53.920Z,-1.10
2023-11-30T02:13:57.494Z,-1.13
2023-11-30T02:16:59.400Z,-1.14
2023-11-30T02:20:03.762Z,-1.16
2023-11-30T02:23:07.194Z,-1.15
2023-11-30T02:26:10.289Z,-1.20
2023-11-30T02:29:16.606Z,-1.22
2023-11-30T02:32:18.732Z,-1.28
2023-11-30T02:35:20.776Z,-1.33
2023-11-30T02:38:24.193Z,-1.41
2023-11-30T02:41:26.193Z,-1.48
2023-11-30T02:44:28.361Z,-1.59
2023-11-30T02:47:30.030Z,-1.67
2023-11-30T02:50:32.115Z,-1.76
2023-11-30T02:53:35.294Z,-1.85
2023-11-30T02:56:40.476Z,-2.13
2023-11-30T02:59:42.388Z,-2.09
2023-11-30T03:02:45.721Z,-2.12
2023-11-30T03:05:47.686Z,-2.14
2023-11-30T03:08:51.966Z,-2.10
2023-11-30T03:11:54.071Z,-2.10
2023-11-30T03:14:55.944Z,-2.10
2023-11-30T03:17:58.045Z,-2.05
2023-11-30T03:20:59.746Z,-2.10
2023-11-30T03:24:03.392Z,-2.17
2023-11-30T03:27:05.388Z,-2.18
2023-11-30T03:30:08.747Z,-2.20
2023-11-30T03:33:10.800Z,-2.18
2023-11-30T03:36:12.678Z,-2.17
2023-11-30T03:39:16.053Z,-2.13
2023-11-30T03:42:18.063Z,-2.10
2023-11-30T03:45:20.154Z,-2.10
2023-11-30T03:48:22.098Z,-1.99
2023-11-30T03:51:24.414Z,-1.95
2023-11-30T03:54:27.794Z,-1.88
2023-11-30T03:57:29.959Z,-1.88
2023-11-30T04:00:31.960Z,-1.75
2023-11-30T04:03:34.090Z,-1.78
2023-11-30T04:06:36.115Z,-1.76
2023-11-30T04:09:39.639Z,-1.73
2023-11-30T04:12:42.061Z,-1.72
2023-11-30T04:15:44.346Z,-1.67
2023-11-30T04:18:46.452Z,-1.66
2023-11-30T04:21:48.414Z,-1.68
2023-11-30T04:24:52.290Z,-1.67
2023-11-30T04:27:54.360Z,-1.67
2023-11-30T04:30:57.917Z,-1.68
2023-11-30T04:34:00.498Z,-1.63
2023-11-30T04:37:02.452Z,-1.66
2023-11-30T04:40:07.575Z,-1.67
2023-11-30T04:43:09.643Z,-1.62
2023-11-30T04:46:11.859Z,-1.61
2023-11-30T04:49:14.147Z,-1.59
2023-11-30T04:52:19.021Z,-1.59
2023-11-30T04:55:22.511Z,-1.54
2023-11-30T04:58:25.028Z,-1.63
2023-11-30T05:01:27.001Z,-1.59
2023-11-30T05:04:28.981Z,-1.59
2023-11-30T05:07:30.828Z,-1.58
2023-11-30T05:10:34.230Z,-1.69
2023-11-30T05:13:36.459Z,-1.74
2023-11-30T05:16:38.509Z,-1.88
2023-11-30T05:19:40.292Z,-1.90
2023-11-30T05:22:42.199Z,-1.98
2023-11-30T05:25:45.727Z,-1.95
2023-11-30T05:28:47.882Z,-1.99
2023-11-30T05:31:49.596Z,-1.96
2023-11-30T05:34:52.932Z,-1.95
2023-11-30T05:37:54.945Z,-1.95
2023-11-30T05:40:59.523Z,-1.85
2023-11-30T05:44:01.604Z,-1.86
2023-11-30T05:47:03.423Z,-1.81
2023-11-30T05:50:06.271Z,-1.81
2023-11-30T05:53:08.359Z,-1.80
2023-11-30T05:56:11.589Z,-1.75
2023-11-30T05:59:13.486Z,-1.78
2023-11-30T06:02:18.603Z,-1.72
2023-11-30T06:05:20.749Z,-1.68
2023-11-30T06:08:22.416Z,-1.66
2023-11-30T06:11:25.618Z,-1.64
2023-11-30T06:14:27.426Z,-1.64
2023-11-30T06:17:29.411Z,-1.61
2023-11-30T06:20:32.422Z,-1.62
2023-11-30T06:23:34.352Z,-1.57
2023-11-30T06:26:37.651Z,-1.54
2023-11-30T06:29:39.506Z,-1.55
2023-11-30T06:32:41.473Z,-1.53
2023-11-30T06:35:43.857Z,-1.54
2023-11-30T06:38:46.076Z,-1.56
2023-11-30T06:41:50.603Z,-1.53
2023-11-30T06:44:54.512Z,-1.55
2023-11-30T06:47:56.596Z,-1.53
2023-11-30T06:50:58.297Z,-1.48
2023-11-30T06:54:00.498Z,-1.42
2023-11-30T06:57:03.959Z,-1.44
2023-11-30T07:00:10.581Z,-1.47
2023-11-30T07:03:14.355Z,-1.46
2023-11-30T07:06:16.705Z,-1.49
2023-11-30T07:09:18.780Z,-1.50
2023-11-30T07:12:21.909Z,-1.49
2023-11-30T07:15:23.830Z,-1.49
2023-11-30T07:18:25.975Z,-1.47
2023-11-30T07:21:29.160Z,-1.47
2023-11-30T07:24:30.986Z,-1.49
2023-11-30T07:27:34.298Z,-1.48
2023-11-30T07:30:37.571Z,-1.50
2023-11-30T07:33:39.527Z,-1.47
2023-11-30T07:36:42.023Z,-1.47
2023-11-30T07:39:43.962Z,-1.44
2023-11-30T07:42:47.263Z,-1.42
2023-11-30T07:45:50.125Z,-1.39
2023-11-30T07:48:52.140Z,-1.39
2023-11-30T07:51:54.045Z,-1.37
2023-11-30T07:54:56.089Z,-1.35
2023-11-30T07:57:59.455Z,-1.36
2023-11-30T08:01:01.982Z,-1.36
2023-11-30T08:04:04.859Z,-1.35
2023-11-30T08:07:06.769Z,-1.36
2023-11-30T08:10:09.021Z,-1.32
2023-11-30T08:13:14.118Z,-1.31
2023-11-30T08:16:16.199Z,-1.35
2023-11-30T08:19:17.978Z,-1.32
2023-11-30T08:22:19.925Z,-1.33
2023-11-30T08:25:21.663Z,-1.36
2023-11-30T08:28:25.907Z,-1.41
2023-11-30T08:31:28.405Z,-1.44
2023-11-30T08:34:30.313Z,-1.48
2023-11-30T08:37:32.319Z,-1.47
2023-11-30T08:40:34.342Z,-1.48
2023-11-30T08:43:37.712Z,-1.44
2023-11-30T08:46:39.837Z,-1.46
2023-11-30T08:49:41.807Z,-1.47
2023-11-30T08:52:43.646Z,-1.44
2023-11-30T08:55:46.760Z,-1.49
2023-11-30T08:58:50.525Z,-1.51
2023-11-30T09:01:52.858Z,-1.51
2023-11-30T09:04:55.047Z,-1.53
2023-11-30T09:07:56.807Z,-1.48
2023-11-30T09:10:58.681Z,-1.44
2023-11-30T09:14:02.050Z,-1.33
2023-11-30T09:17:05.582Z,-1.07
2023-11-30T09:20:09.700Z,-0.79
2023-11-30T09:23:11.559Z,-0.60
2023-11-30T09:26:13.521Z,-0.33
2023-11-30T09:29:16.749Z,-0.22
2023-11-30T09:32:18.680Z,-0.15
2023-11-30T09:35:20.556Z,-0.09
2023-11-30T09:38:22.625Z,0.01
2023-11-30T09:41:24.747Z,0.21
2023-11-30T09:44:28.140Z,0.47
2023-11-30T09:47:30.135Z,0.52
2023-11-30T09:50:32.412Z,0.69
2023-11-30T09:53:34.328Z,0.86
2023-11-30T09:56:36.331Z,0.98
2023-11-30T09:59:40.153Z,1.09
2023-11-30T10:02:51.595Z,0.86
2023-11-30T10:05:53.708Z,0.82
2023-11-30T10:09:02.058Z,0.71
2023-11-30T10:12:05.030Z,0.77
2023-11-30T10:15:10.697Z,1.07
2023-11-30T10:18:13.447Z,1.15
2023-11-30T10:21:15.358Z,1.36
2023-11-30T10:24:17.269Z,1.56
2023-11-30T10:27:22.506Z,1.43
2023-11-30T10:30:26.977Z,1.08
2023-11-30T10:33:30.311Z,1.11
2023-11-30T10:36:33.429Z,1.03
2023-11-30T10:39:42.748Z,1.12
2023-11-30T10:42:48.581Z,1.07
2023-11-30T10:45:55.206Z,1.01
2023-11-30T10:48:57.578Z,0.95
2023-11-30T10:52:03.800Z,0.97
2023-11-30T10:55:10.415Z,1.22
2023-11-30T10:58:12.893Z,1.24
2023-11-30T11:01:16.082Z,1.29
2023-11-30T11:04:18.041Z,1.28
2023-11-30T11:07:20.250Z,1.12
2023-11-30T11:10:23.429Z,1.09
2023-11-30T11:13:25.998Z,1.17
2023-11-30T11:16:37.844Z,1.25
2023-11-30T11:19:41.504Z,1.11
2023-11-30T11:22:44.105Z,1.30
2023-11-30T11:25:47.745Z,1.43
2023-11-30T11:28:50.741Z,1.36
2023-11-30T11:31:55.093Z,1.41
2023-11-30T11:34:57.461Z,1.25
2023-11-30T11:38:00.330Z,1.23
2023-11-30T11:41:02.512Z,1.37
2023-11-30T11:44:04.460Z,1.36
2023-11-30T11:47:08.000Z,1.32
2023-11-30T11:50:14.828Z,1.13
2023-11-30T11:53:16.982Z,1.23
2023-11-30T11:56:18.988Z,1.32
2023-11-30T11:59:22.259Z,1.40
2023-11-30T12:02:26.436Z,1.44
2023-11-30T12:05:28.841Z,1.62
2023-11-30T12:08:31.475Z,1.71
2023-11-30T12:11:33.456Z,1.74
2023-11-30T12:14:36.246Z,1.68
2023-11-30T12:17:40.347Z,1.74
2023-11-30T12:20:44.433Z,1.82
2023-11-30T12:23:47.340Z,1.71
2023-11-30T12:26:49.494Z,1.76
2023-11-30T12:29:51.273Z,1.77
2023-11-30T12:32:54.632Z,1.67
2023-11-30T12:35:57.161Z,1.67
2023-11-30T12:38:59.073Z,1.72
2023-11-30T12:42:01.896Z,1.64
2023-11-30T12:45:06.313Z,1.59
2023-11-30T12:48:09.786Z,1.57
2023-11-30T12:51:11.838Z,1.52
2023-11-30T12:54:14.319Z,1.39
2023-11-30T12:57:16.935Z,1.28
2023-11-30T13:00:19.949Z,1.28
2023-11-30T13:03:24.591Z,1.27
2023-11-30T13:06:26.935Z,1.16
2023-11-30T13:09:33.714Z,1.08
2023-11-30T13:12:36.407Z,1.00
2023-11-30T13:15:38.538Z,1.03
2023-11-30T13:18:42.231Z,1.15
2023-11-30T13:21:44.543Z,1.23
2023-11-30T13:24:46.685Z,1.28
2023-11-30T13:27:49.004Z,1.24
2023-11-30T13:30:51.487Z,1.17
2023-11-30T13:33:55.027Z,1.21
2023-11-30T13:36:57.382Z,1.34
2023-11-30T13:39:59.609Z,1.32
2023-11-30T13:43:01.287Z,1.48
2023-11-30T13:46:05.905Z,1.52
2023-11-30T13:49:14.744Z,1.38
2023-11-30T13:52:17.523Z,1.26
2023-11-30T13:55:20.234Z,1.37
2023-11-30T13:58:23.511Z,1.36
2023-11-30T14:01:25.494Z,1.34
2023-11-30T14:04:34.260Z,1.29
2023-11-30T14:07:36.880Z,1.24
2023-11-30T14:10:40.533Z,1.32
2023-11-30T14:13:46.048Z,1.32
2023-11-30T14:16:48.470Z,1.31
2023-11-30T14:19:52.284Z,2.04
2023-11-30T14:22:59.359Z,2.08
2023-11-30T14:26:01.821Z,2.15
2023-11-30T14:29:04.603Z,2.51
2023-11-30T14:32:09.252Z,1.83
2023-11-30T14:35:13.389Z,1.26
2023-11-30T14:38:15.750Z,1.14
2023-11-30T14:41:17.996Z,0.94
2023-11-30T14:44:20.692Z,0.67
2023-11-30T14:47:27.088Z,0.62
2023-11-30T14:50:32.424Z,0.41
2023-11-30T14:53:35.087Z,0.43
2023-11-30T14:56:37.384Z,0.38
2023-11-30T14:59:40.337Z,0.32
2023-11-30T15:02:43.153Z,0.23
2023-11-30T15:05:47.359Z,0.16
2023-11-30T15:08:52.407Z,0.12
2023-11-30T15:11:56.039Z,0.09
2023-11-30T15:14:58.158Z,-0.01
2023-11-30T15:18:00.204Z,0.03
2023-11-30T15:21:03.562Z,-0.01
2023-11-30T15:24:06.006Z,-0.08
2023-11-30T15:27:08.071Z,-0.17
2023-11-30T15:30:12.123Z,-0.24
2023-11-30T15:33:17.947Z,-0.35
2023-11-30T15:36:22.124Z,-0.39
2023-11-30T15:39:25.426Z,-0.27
2023-11-30T15:42:27.390Z,-0.31
2023-11-30T15:45:29.703Z,-0.32
2023-11-30T15:48:32.115Z,-0.33
2023-11-30T15:51:39.412Z,-0.44
2023-11-30T15:54:41.738Z,-0.38
2023-11-30T15:57:45.951Z,-0.42
2023-11-30T16:00:49.233Z,-0.39
2023-11-30T16:03:52.206Z,-0.42
2023-11-30T16:06:56.316Z,-0.40
2023-11-30T16:09:58.589Z,-0.37
2023-11-30T16:16:29.072Z,-0.53
2023-11-30T16:19:31.091Z,-0.56
2023-11-30T16:22:34.785Z,-0.57
2023-11-30T16:25:37.018Z,-0.52
2023-11-30T16:28:38.933Z,-0.52
2023-11-30T16:31:42.795Z,-0.56
2023-11-30T16:34:44.704Z,-0.61
2023-11-30T16:37:47.912Z,-0.65
2023-11-30T16:40:49.802Z,-0.63
2023-11-30T16:43:51.752Z,-0.69
2023-11-30T16:46:53.771Z,-0.71
2023-11-30T16:49:55.868Z,-0.71
2023-11-30T16:52:59.071Z,-0.76
2023-11-30T16:56:01.091Z,-0.81
2023-11-30T16:59:03.110Z,-0.84
2023-11-30T17:02:05.282Z,-0.90
2023-11-30T17:05:08.321Z,-0.91
2023-11-30T17:08:11.786Z,-0.96
2023-11-30T17:11:13.862Z,-1.02
2023-11-30T17:14:15.769Z,-1.08
2023-11-30T17:17:17.772Z,-1.12
2023-11-30T17:20:20.716Z,-1.13
2023-11-30T17:23:23.926Z,-1.12
2023-11-30T17:26:25.842Z,-1.25
2023-11-30T17:29:27.938Z,-1.50
2023-11-30T17:32:29.830Z,-1.66
2023-11-30T17:35:32.418Z,-1.74
2023-11-30T17:38:37.562Z,-1.72
2023-11-30T17:41:42.422Z,-1.69
2023-11-30T17:44:44.376Z,-1.71
2023-11-30T17:47:46.715Z,-1.65
2023-11-30T17:50:48.833Z,-1.68
2023-11-30T17:53:52.248Z,-1.63
2023-11-30T17:56:56.900Z,-1.63
2023-11-30T17:59:58.901Z,-1.66
2023-11-30T18:03:00.940Z,-1.70
2023-11-30T18:06:05.525Z,-1.70
2023-11-30T18:09:08.901Z,-1.68
2023-11-30T18:12:10.917Z,-1.80
2023-11-30T18:15:13.017Z,-1.76
2023-11-30T18:18:14.947Z,-1.76
2023-11-30T18:21:16.930Z,-1.80
2023-11-30T18:24:20.415Z,-1.84
2023-11-30T18:27:22.843Z,-1.85
2023-11-30T18:30:25.015Z,-1.83
2023-11-30T18:33:26.913Z,-1.82
2023-11-30T18:36:29.042Z,-1.93
2023-11-30T18:39:33.340Z,-1.97
2023-11-30T18:42:36.055Z,-1.94
2023-11-30T18:45:39.815Z,-1.99
2023-11-30T18:48:42.365Z,-1.99
2023-11-30T18:51:44.420Z,-2.02
2023-11-30T18:54:49.321Z,-1.96
2023-11-30T18:57:53.563Z,-1.93
2023-11-30T19:00:58.559Z,-1.93
2023-11-30T19:04:00.693Z,-1.97
2023-11-30T19:07:02.850Z,-1.97
2023-11-30T19:10:06.876Z,-1.96
2023-11-30T19:13:08.858Z,-1.99
2023-11-30T19:16:16.807Z,-2.03
2023-11-30T19:19:19.054Z,-2.03
2023-11-30T19:22:22.803Z,-1.98
2023-11-30T19:25:26.299Z,-2.00
2023-11-30T19:28:28.809Z,-2.03
2023-11-30T19:31:31.377Z,-2.04
2023-11-30T19:34:33.688Z,-2.06
2023-11-30T19:37:35.580Z,-2.04
2023-11-30T19:40:38.805Z,-2.17
2023-11-30T19:43:40.879Z,-2.19
2023-11-30T19:46:43.852Z,-2.19
2023-11-30T19:49:45.781Z,-2.46
2023-11-30T19:52:47.676Z,-2.60
2023-11-30T19:55:52.135Z,-2.55
2023-11-30T19:58:54.209Z,-2.55
2023-11-30T20:01:58.741Z,-2.58
2023-11-30T20:05:00.971Z,-2.55
2023-11-30T20:08:02.754Z,-2.47
2023-11-30T20:11:10.923Z,-2.50
2023-11-30T20:14:12.767Z,-2.57
2023-11-30T20:17:14.847Z,-2.58
2023-11-30T20:20:17.361Z,-2.81
2023-11-30T20:23:19.751Z,-2.86
2023-11-30T20:26:23.420Z,-2.89
2023-11-30T20:29:27.287Z,-2.83
2023-11-30T20:32:35.501Z,-2.87
2023-11-30T20:35:37.773Z,-2.73
2023-11-30T20:38:40.799Z,-2.66
2023-11-30T20:41:47.424Z,-2.56
2023-11-30T20:44:52.992Z,-2.61
2023-11-30T20:47:55.250Z,-2.74
2023-11-30T20:50:57.418Z,-2.86
2023-11-30T20:53:59.363Z,-2.87
2023-11-30T20:57:05.400Z,-2.87
2023-11-30T21:00:09.859Z,-2.75
2023-11-30T21:03:11.989Z,-2.80
2023-11-30T21:06:14.145Z,-2.68
2023-11-30T21:09:16.061Z,-2.64
2023-11-30T21:12:19.451Z,-2.57
2023-11-30T21:15:21.521Z,-2.64
2023-11-30T21:18:23.637Z,-2.53
2023-11-30T21:21:25.845Z,-2.56
2023-11-30T21:24:28.748Z,-2.48
2023-11-30T21:27:33.217Z,-2.53
2023-11-30T21:30:35.250Z,-2.50
2023-11-30T21:33:37.462Z,-2.47
2023-11-30T21:36:43.463Z,-2.45
2023-11-30T21:39:45.905Z,-2.41
2023-11-30T21:42:50.290Z,-2.46
2023-11-30T21:45:52.465Z,-2.57
2023-11-30T21:48:54.275Z,-2.45
2023-11-30T21:51:56.795Z,-2.50
2023-11-30T21:54:58.757Z,-2.63
2023-11-30T21:58:02.173Z,-2.58
2023-11-30T22:01:06.029Z,-2.67
2023-11-30T22:04:08.336Z,-2.66
2023-11-30T22:07:10.264Z,-2.68
2023-11-30T22:10:13.300Z,-2.75
2023-11-30T22:13:16.726Z,-2.81
2023-11-30T22:16:26.022Z,-2.87
2023-11-30T22:19:31.596Z,-2.95
2023-11-30T22:22:34.589Z,-3.01
2023-11-30T22:25:36.731Z,-3.03
2023-11-30T22:28:40.140Z,-3.05
2023-11-30T22:31:42.592Z,-3.13
2023-11-30T22:34:44.937Z,-3.15
2023-11-30T22:37:47.098Z,-3.19
2023-11-30T22:40:49.697Z,-3.21
2023-11-30T22:43:53.218Z,-3.15
2023-11-30T22:46:55.404Z,-3.13
2023-11-30T22:49:57.699Z,-3.18
2023-11-30T22:52:59.923Z,-3.12
2023-11-30T22:56:01.967Z,-3.21
2023-11-30T22:59:07.244Z,-3.34
2023-11-30T23:02:09.870Z,-3.39
2023-11-30T23:05:13.326Z,-3.49
2023-11-30T23:08:16.111Z,-3.50
2023-11-30T23:11:18.463Z,-3.51
2023-11-30T23:14:23.623Z,-3.56
2023-11-30T23:17:25.764Z,-3.64
2023-11-30T23:20:27.545Z,-3.63
2023-11-30T23:23:29.580Z,-3.66
2023-11-30T23:26:31.965Z,-3.64
2023-11-30T23:29:37.826Z,-3.68
2023-11-30T23:32:40.312Z,-3.69
2023-11-30T23:35:42.804Z,-3.70
2023-11-30T23:38:45.446Z,-3.71
2023-11-30T23:41:47.557Z,-3.58
2023-11-30T23:44:51.003Z,-3.50
2023-11-30T23:47:53.089Z,-3.50
2023-11-30T23:50:56.913Z,-3.43
2023-11-30T23:53:59.311Z,-3.47
2023-11-30T23:57:01.383Z,-3.52
